Terminal Aerodrome Forecast
Issued by NWS

Home | Current Version | Previous Version | Text Only | Print | Product List | Glossary Off
Versions: 1 2 3 4 5 6 7 8 9 10 11 12 13 14 15 16 17 18 19 20 21 22 23 24 25

000
FTUS43 KLOT 200909 AAB
TAFDPA
TAF AMD
KDPA 200909Z 2009/2106 13003KT 1SM BR FEW004 SCT070
      TEMPO 2009/2013 1/4SM FG VV004
     FM201500 17007KT 6SM BR FEW015 SCT040
     FM201800 18012G19KT P6SM SCT060 SCT250
     FM210100 20006KT P6SM BKN200=

USA.gov is the U.S. government's official web portal to all federal, state and local government web resources and services.